Time;durP1;ratioP1;P1;durP2;ratioP2;P2;SDS_P1;SDS_P2;PMS_P1;PMS_P2;Temp;Humidity;BMP_temperature;BMP_pressure;BME280_temperature;BME280_humidity;BME280_pressure;Samples;Min_cycle;Max_cycle;Signal;HPM_P1;HPM_P2
2023/05/03 00:00:15;;;;;;;11.75;5.72;;;;;;;5.80;100.00;94547.28;4801705;29;20059;-64
2023/05/03 00:02:43;;;;;;;9.37;5.10;;;;;;;5.79;100.00;94544.91;4801685;29;20578;-62
2023/05/03 00:05:11;;;;;;;10.95;5.47;;;;;;;5.77;100.00;94544.50;4801388;29;20085;-60
2023/05/03 00:07:41;;;;;;;9.85;5.55;;;;;;;5.74;100.00;94543.31;4801073;29;20066;-63
2023/05/03 00:10:09;;;;;;;24.92;13.10;;;;;;;5.71;100.00;94543.25;4801795;29;20051;-60
2023/05/03 00:12:39;;;;;;;14.85;8.05;;;;;;;5.68;100.00;94541.28;4801253;29;20051;-63
2023/05/03 00:15:07;;;;;;;12.67;5.83;;;;;;;5.65;100.00;94542.00;4800745;29;20043;-61
2023/05/03 00:17:35;;;;;;;11.65;6.07;;;;;;;5.59;100.00;94546.97;4800667;29;20050;-61
2023/05/03 00:20:03;;;;;;;12.57;7.00;;;;;;;5.51;100.00;94542.59;4801229;29;20078;-60
2023/05/03 00:22:31;;;;;;;11.63;6.18;;;;;;;5.50;100.00;94544.53;4801250;29;20051;-60
2023/05/03 00:24:58;;;;;;;11.85;6.32;;;;;;;5.42;100.00;94540.13;4801449;29;20062;-61
2023/05/03 00:27:25;;;;;;;13.30;7.17;;;;;;;5.35;100.00;94545.47;4801327;29;20519;-63
2023/05/03 00:29:52;;;;;;;16.52;7.97;;;;;;;5.15;100.00;94547.50;4801609;29;20043;-61
2023/05/03 00:32:21;;;;;;;16.55;7.50;;;;;;;5.14;100.00;94538.56;4785602;29;20046;-60
2023/05/03 00:34:55;;;;;;;11.48;6.35;;;;;;;5.16;100.00;94543.63;4800440;29;20371;-61
2023/05/03 00:37:24;;;;;;;11.35;5.75;;;;;;;5.14;100.00;94543.22;4801212;29;20043;-60
2023/05/03 00:39:51;;;;;;;14.47;6.00;;;;;;;5.10;100.00;94550.53;4801397;29;20423;-60
2023/05/03 00:42:18;;;;;;;10.68;5.97;;;;;;;5.03;100.00;94543.06;4801631;29;20086;-63
2023/05/03 00:44:45;;;;;;;11.70;5.75;;;;;;;4.97;100.00;94541.78;4784403;29;20119;-61
2023/05/03 00:47:12;;;;;;;11.50;5.45;;;;;;;4.96;100.00;94551.09;4801454;29;20391;-60
2023/05/03 00:49:40;;;;;;;12.15;5.78;;;;;;;4.96;100.00;94541.00;4800765;29;20046;-61
2023/05/03 00:52:07;;;;;;;11.40;5.43;;;;;;;4.99;100.00;94542.22;4801532;29;20050;-60
2023/05/03 00:54:34;;;;;;;10.88;5.78;;;;;;;5.03;100.00;94550.41;4800939;29;20380;-60
2023/05/03 00:57:03;;;;;;;12.02;6.05;;;;;;;4.96;100.00;94546.44;4801215;29;20069;-60
2023/05/03 00:59:31;;;;;;;11.38;6.10;;;;;;;4.93;100.00;94555.34;4801065;29;20050;-62
2023/05/03 01:01:58;;;;;;;12.63;5.80;;;;;;;4.89;100.00;94553.69;4801376;29;20095;-61
2023/05/03 01:04:26;;;;;;;12.27;5.90;;;;;;;4.77;100.00;94557.41;4800943;29;20063;-62
2023/05/03 01:07:18;;;;;;;12.73;5.80;;;;;;;4.81;100.00;94550.09;4801350;29;20073;-61
2023/05/03 01:09:50;;;;;;;13.00;6.00;;;;;;;4.79;100.00;94545.00;4800420;29;22131;-60
2023/05/03 01:12:29;;;;;;;12.45;6.28;;;;;;;4.74;100.00;94545.28;4800956;29;20387;-61
2023/05/03 01:15:14;;;;;;;15.02;6.47;;;;;;;4.74;100.00;94549.94;4800489;29;20055;-61
2023/05/03 01:17:49;;;;;;;14.17;6.83;;;;;;;4.70;100.00;94544.44;4800825;29;20172;-61
2023/05/03 01:20:23;;;;;;;12.93;6.47;;;;;;;4.65;100.00;94533.09;4801061;29;20416;-62
2023/05/03 01:23:09;;;;;;;11.48;6.18;;;;;;;4.48;100.00;94540.56;4800228;29;20054;-61
2023/05/03 01:25:36;;;;;;;12.60;6.32;;;;;;;4.52;100.00;94535.97;4800474;29;20050;-62
2023/05/03 01:28:02;;;;;;;13.50;5.90;;;;;;;4.47;100.00;94539.00;4785063;29;20050;-62
2023/05/03 01:30:31;;;;;;;11.33;6.00;;;;;;;4.51;100.00;94541.81;4800921;29;20046;-60
2023/05/03 01:33:43;;;;;;;12.85;6.60;;;;;;;4.46;100.00;94533.94;4801115;29;20059;-64
2023/05/03 01:36:32;;;;;;;12.25;6.60;;;;;;;4.26;100.00;94536.66;4800175;29;20742;-61
2023/05/03 01:39:07;;;;;;;11.63;5.88;;;;;;;4.40;100.00;94536.94;4800397;29;20802;-60
2023/05/03 01:41:36;;;;;;;13.80;6.72;;;;;;;4.45;100.00;94526.91;4800695;29;20099;-61
2023/05/03 01:44:03;;;;;;;11.20;5.67;;;;;;;4.46;100.00;94525.78;4800933;29;20059;-60
2023/05/03 01:46:30;;;;;;;14.27;6.43;;;;;;;4.47;100.00;94530.06;4800507;29;20047;-60
2023/05/03 01:48:57;;;;;;;15.07;7.25;;;;;;;4.39;100.00;94515.56;4804290;29;20051;-61
2023/05/03 01:51:24;;;;;;;14.15;6.82;;;;;;;4.39;100.00;94508.19;4803689;29;20070;-61
2023/05/03 01:53:51;;;;;;;13.82;7.22;;;;;;;4.44;100.00;94519.91;4804232;29;20203;-63
2023/05/03 01:56:17;;;;;;;12.73;6.57;;;;;;;4.47;100.00;94516.50;4804028;29;20051;-60
2023/05/03 01:58:44;;;;;;;14.93;7.00;;;;;;;4.50;100.00;94523.91;4803627;29;20053;-61
2023/05/03 02:01:11;;;;;;;14.07;7.35;;;;;;;4.49;100.00;94520.41;4804052;29;20457;-63
2023/05/03 02:03:37;;;;;;;12.55;6.50;;;;;;;4.45;100.00;94518.75;4803493;29;20102;-62
2023/05/03 02:06:04;;;;;;;14.07;6.72;;;;;;;4.49;100.00;94516.91;4804024;29;20078;-61
2023/05/03 02:08:31;;;;;;;14.20;6.50;;;;;;;4.40;100.00;94512.47;4803609;29;20058;-63
2023/05/03 02:10:58;;;;;;;13.25;6.07;;;;;;;4.40;100.00;94511.69;4803782;29;20077;-60
2023/05/03 02:13:24;;;;;;;12.50;6.47;;;;;;;4.28;100.00;94509.16;4803223;29;20458;-61
2023/05/03 02:15:51;;;;;;;13.52;6.10;;;;;;;4.23;100.00;94507.53;4803887;29;20557;-60
2023/05/03 02:18:19;;;;;;;12.95;6.10;;;;;;;4.18;100.00;94513.25;4803691;29;20528;-64
2023/05/03 02:20:46;;;;;;;12.70;6.33;;;;;;;4.14;100.00;94517.81;4802789;29;20353;-63
2023/05/03 02:23:13;;;;;;;12.10;5.90;;;;;;;4.11;100.00;94524.75;4803377;29;20062;-60
2023/05/03 02:25:40;;;;;;;13.77;6.05;;;;;;;4.06;100.00;94524.25;4803268;29;20058;-60
2023/05/03 02:28:07;;;;;;;13.73;7.20;;;;;;;4.01;100.00;94522.63;4775164;29;20049;-61
2023/05/03 02:30:34;;;;;;;13.32;7.15;;;;;;;4.02;100.00;94526.13;4786874;29;20055;-61
2023/05/03 02:33:01;;;;;;;13.60;6.70;;;;;;;3.98;100.00;94529.56;4803421;29;20054;-61
2023/05/03 02:35:28;;;;;;;13.48;6.57;;;;;;;3.85;100.00;94527.34;4801540;29;20487;-63
2023/05/03 02:37:55;;;;;;;15.98;7.50;;;;;;;3.75;100.00;94526.00;4803272;29;20055;-62
2023/05/03 02:40:22;;;;;;;15.07;7.50;;;;;;;3.75;100.00;94524.06;4802932;29;20045;-59
2023/05/03 02:42:49;;;;;;;14.80;7.43;;;;;;;3.77;100.00;94523.72;4803372;29;20063;-60
2023/05/03 02:45:16;;;;;;;18.07;7.70;;;;;;;3.84;100.00;94528.50;4803392;29;20458;-60
2023/05/03 02:47:43;;;;;;;15.50;7.85;;;;;;;3.87;100.00;94520.41;4802896;29;20050;-61
2023/05/03 02:50:10;;;;;;;19.67;8.13;;;;;;;3.90;100.00;94521.63;4803393;29;20047;-64
2023/05/03 02:52:36;;;;;;;17.10;8.20;;;;;;;3.93;100.00;94520.91;4802605;29;20058;-61
2023/05/03 02:55:04;;;;;;;18.85;8.43;;;;;;;3.90;100.00;94519.69;4786850;29;20051;-60
2023/05/03 02:57:31;;;;;;;17.60;7.80;;;;;;;3.88;100.00;94519.25;4802636;29;20404;-60
2023/05/03 02:59:58;;;;;;;18.83;8.13;;;;;;;3.81;100.00;94519.13;4801772;29;20085;-61
2023/05/03 03:02:24;;;;;;;17.33;8.43;;;;;;;3.83;100.00;94525.00;4802321;29;20081;-62
2023/05/03 03:04:52;;;;;;;18.33;8.25;;;;;;;3.82;100.00;94514.47;4802995;29;20050;-63
2023/05/03 03:07:18;;;;;;;15.80;7.82;;;;;;;3.79;100.00;94514.06;4802867;29;20055;-61
2023/05/03 03:09:45;;;;;;;15.40;8.00;;;;;;;3.81;100.00;94513.72;4802060;29;20174;-60
2023/05/03 03:12:12;;;;;;;17.35;8.82;;;;;;;3.82;100.00;94511.75;4786474;29;20065;-60
2023/05/03 03:14:40;;;;;;;18.90;8.95;;;;;;;3.84;100.00;94507.53;4802235;29;20062;-61
2023/05/03 03:17:10;;;;;;;19.33;8.80;;;;;;;3.83;100.00;94510.63;4802529;29;20058;-61
2023/05/03 03:19:37;;;;;;;19.05;8.25;;;;;;;3.84;100.00;94517.63;4801931;29;20055;-61
2023/05/03 03:22:04;;;;;;;16.43;7.80;;;;;;;3.74;100.00;94506.22;4802470;29;20436;-60
2023/05/03 03:24:31;;;;;;;15.15;7.10;;;;;;;3.56;100.00;94513.19;4802221;29;20458;-64
2023/05/03 03:26:57;;;;;;;15.80;8.15;;;;;;;3.54;100.00;94510.84;4802604;29;20047;-61
2023/05/03 03:29:24;;;;;;;19.42;7.38;;;;;;;3.53;100.00;94503.81;4785799;29;20055;-60
2023/05/03 03:31:51;;;;;;;17.20;7.75;;;;;;;3.56;100.00;94510.47;4802116;29;20508;-61
2023/05/03 03:34:17;;;;;;;14.90;7.20;;;;;;;3.57;100.00;94507.41;4773029;29;20055;-63
2023/05/03 03:36:44;;;;;;;17.30;7.20;;;;;;;3.60;100.00;94512.13;4800195;29;20599;-63
2023/05/03 03:39:11;;;;;;;16.92;8.18;;;;;;;3.55;100.00;94512.41;4802483;29;20059;-61
2023/05/03 03:41:38;;;;;;;15.75;7.45;;;;;;;3.47;100.00;94513.41;4801215;29;20046;-60
2023/05/03 03:44:04;;;;;;;16.45;8.10;;;;;;;3.48;100.00;94514.97;4801651;29;20061;-59
2023/05/03 03:46:31;;;;;;;16.33;7.60;;;;;;;3.49;100.00;94513.81;4800690;29;20043;-62
2023/05/03 03:48:58;;;;;;;17.08;8.13;;;;;;;3.52;100.00;94510.41;4801536;29;20051;-61
2023/05/03 03:51:25;;;;;;;17.20;8.63;;;;;;;3.53;100.00;94516.63;4784517;29;20155;-61
2023/05/03 03:53:52;;;;;;;16.65;8.55;;;;;;;3.49;100.00;94511.09;4785600;29;20043;-62
2023/05/03 03:56:20;;;;;;;16.80;8.48;;;;;;;3.46;100.00;94514.56;4801532;29;20051;-62
2023/05/03 03:58:47;;;;;;;17.43;8.57;;;;;;;3.51;100.00;94519.69;4800340;29;21639;-58
2023/05/03 04:01:14;;;;;;;18.27;9.20;;;;;;;3.43;100.00;94517.97;4801214;29;20070;-59
2023/05/03 04:03:41;;;;;;;15.52;8.13;;;;;;;3.29;100.00;94523.09;4800461;29;20078;-59
2023/05/03 04:06:07;;;;;;;16.67;8.10;;;;;;;3.16;100.00;94528.63;4801153;29;20050;-60
2023/05/03 04:08:34;;;;;;;14.55;7.28;;;;;;;3.10;100.00;94531.94;4800522;29;20407;-60
2023/05/03 04:11:01;;;;;;;14.50;7.57;;;;;;;3.22;100.00;94534.56;4800943;29;20424;-62
2023/05/03 04:13:28;;;;;;;15.75;7.70;;;;;;;3.23;100.00;94530.69;4798772;29;20054;-59
2023/05/03 04:15:55;;;;;;;18.42;8.57;;;;;;;3.25;100.00;94528.41;4801017;29;20065;-60
2023/05/03 04:18:22;;;;;;;16.77;8.45;;;;;;;3.38;100.00;94537.22;4799693;29;20069;-59
2023/05/03 04:20:49;;;;;;;16.25;8.13;;;;;;;3.47;100.00;94531.63;4801027;29;20078;-62
2023/05/03 04:23:15;;;;;;;16.77;8.80;;;;;;;3.57;100.00;94533.75;4801115;29;20053;-61
2023/05/03 04:25:45;;;;;;;20.45;10.60;;;;;;;3.65;100.00;94535.47;4800445;29;20050;-59
2023/05/03 04:28:12;;;;;;;20.23;9.90;;;;;;;3.62;100.00;94532.69;4800688;29;20111;-62
2023/05/03 04:30:40;;;;;;;20.50;9.05;;;;;;;3.48;100.00;94533.97;4784067;29;20058;-59
2023/05/03 04:33:08;;;;;;;18.80;8.52;;;;;;;3.60;100.00;94533.03;4800827;29;20107;-59
2023/05/03 04:35:35;;;;;;;19.37;8.67;;;;;;;3.75;100.00;94531.41;4787106;29;20412;-59
2023/05/03 04:38:02;;;;;;;19.67;8.93;;;;;;;3.87;100.00;94542.13;4800578;29;20461;-59
2023/05/03 04:40:28;;;;;;;18.63;9.23;;;;;;;3.86;100.00;94540.56;4799830;29;20046;-60
2023/05/03 04:42:56;;;;;;;18.92;8.85;;;;;;;3.90;100.00;94538.69;4801014;29;20135;-60
2023/05/03 04:45:23;;;;;;;16.35;8.52;;;;;;;3.93;100.00;94537.22;4800053;29;20132;-59
2023/05/03 04:47:49;;;;;;;20.40;8.70;;;;;;;4.18;100.00;94549.34;4800359;29;20107;-62
2023/05/03 04:50:16;;;;;;;17.38;8.10;;;;;;;4.27;100.00;94540.97;4784665;29;20065;-59
2023/05/03 04:52:43;;;;;;;15.30;8.48;;;;;;;4.49;100.00;94544.88;4799787;29;20047;-59
2023/05/03 04:55:10;;;;;;;17.77;8.23;;;;;;;4.53;100.00;94561.25;4800715;29;20175;-62
2023/05/03 04:57:37;;;;;;;20.38;8.70;;;;;;;4.59;100.00;94557.09;4783969;29;20621;-59
2023/05/03 05:00:09;;;;;;;16.70;7.80;;;;;;;4.75;100.00;94560.47;4800635;29;20119;-59
2023/05/03 05:02:36;;;;;;;19.40;8.75;;;;;;;4.73;100.00;94565.50;4794562;29;20059;-59
2023/05/03 05:05:03;;;;;;;19.90;8.52;;;;;;;4.85;100.00;94561.81;4796093;29;20047;-59
2023/05/03 05:07:30;;;;;;;22.85;9.27;;;;;;;5.06;100.00;94564.09;4797660;29;20058;-63
2023/05/03 05:09:57;;;;;;;20.35;9.82;;;;;;;5.15;100.00;94563.81;4800388;29;20047;-61
2023/05/03 05:12:24;;;;;;;21.30;9.37;;;;;;;5.10;100.00;94566.88;4799816;29;20061;-65
2023/05/03 05:14:50;;;;;;;18.73;9.05;;;;;;;5.19;100.00;94568.19;4800607;29;20065;-60
2023/05/03 05:17:17;;;;;;;20.60;9.38;;;;;;;5.37;100.00;94565.75;4800254;29;20398;-63
2023/05/03 05:19:44;;;;;;;20.42;9.40;;;;;;;5.58;100.00;94561.75;4799615;29;20057;-59
2023/05/03 05:22:10;;;;;;;24.23;9.73;;;;;;;5.82;100.00;94562.47;4801395;29;20069;-59
2023/05/03 05:24:37;;;;;;;24.53;11.50;;;;;;;5.42;100.00;94564.63;4787128;29;20498;-58
2023/05/03 05:27:05;;;;;;;25.15;11.40;;;;;;;5.59;100.00;94558.66;4803689;29;20080;-59
2023/05/03 05:29:33;;;;;;;30.08;12.30;;;;;;;5.38;100.00;94555.63;4802905;29;20097;-59
2023/05/03 05:32:02;;;;;;;28.73;11.88;;;;;;;5.39;100.00;94559.91;4803566;29;20447;-63
2023/05/03 05:34:29;;;;;;;43.83;12.77;;;;;;;5.33;100.00;94564.09;4803009;29;20050;-61
2023/05/03 05:37:07;;;;;;;29.13;12.77;;;;;;;5.97;100.00;94562.28;4803342;29;20059;-59
2023/05/03 05:39:34;;;;;;;34.35;12.52;;;;;;;5.69;100.00;94561.91;4784381;29;20413;-62
2023/05/03 05:42:01;;;;;;;27.83;11.75;;;;;;;6.43;100.00;94561.28;4787187;29;20043;-61
2023/05/03 05:44:29;;;;;;;28.45;11.93;;;;;;;6.66;100.00;94558.41;4769145;30;20387;-62
2023/05/03 05:46:55;;;;;;;25.67;11.70;;;;;;;6.96;100.00;94550.13;4796827;29;20054;-63
2023/05/03 05:49:22;;;;;;;25.83;11.27;;;;;;;6.86;100.00;94571.84;4803392;29;20345;-58
2023/05/03 05:51:49;;;;;;;60.55;12.57;;;;;;;5.64;100.00;94571.19;4803950;29;20565;-59
2023/05/03 05:54:16;;;;;;;26.23;11.88;;;;;;;6.32;100.00;94574.81;4803632;29;20374;-60
2023/05/03 05:56:42;;;;;;;26.17;11.90;;;;;;;6.58;100.00;94573.91;4802698;29;20122;-62
2023/05/03 05:59:10;;;;;;;23.65;11.15;;;;;;;7.27;100.00;94566.34;4787416;29;20553;-61
2023/05/03 06:01:40;;;;;;;128.47;14.20;;;;;;;5.89;100.00;94576.94;4802637;29;20417;-62
2023/05/03 06:04:07;;;;;;;128.27;15.05;;;;;;;5.79;100.00;94586.56;4803222;29;20061;-62
2023/05/03 06:06:34;;;;;;;57.03;14.27;;;;;;;6.59;100.00;94580.16;4799560;29;20066;-61
2023/05/03 06:09:01;;;;;;;50.45;12.15;;;;;;;6.58;100.00;94575.88;4803461;29;20415;-61
2023/05/03 06:11:42;;;;;;;51.28;11.90;;;;;;;6.58;100.00;94575.88;4803245;29;20068;-60
2023/05/03 06:14:09;;;;;;;48.63;12.07;;;;;;;7.24;100.00;94565.13;4803612;29;20482;-63
2023/05/03 06:16:36;;;;;;;56.08;13.52;;;;;;;6.84;100.00;94560.50;4803241;29;20046;-60
2023/05/03 06:19:03;;;;;;;25.58;11.75;;;;;;;6.84;100.00;94577.69;4803848;29;20492;-60
2023/05/03 06:21:30;;;;;;;28.95;12.07;;;;;;;7.23;100.00;94562.81;4803055;29;20058;-60
2023/05/03 06:23:57;;;;;;;29.02;11.27;;;;;;;7.55;100.00;94566.56;4803781;29;20055;-60
2023/05/03 06:26:24;;;;;;;22.70;11.13;;;;;;;7.49;100.00;94559.88;4803373;29;20088;-60
2023/05/03 06:28:51;;;;;;;148.30;14.48;;;;;;;6.91;100.00;94557.84;4803607;29;20051;-64
2023/05/03 06:31:18;;;;;;;29.00;10.93;;;;;;;7.27;100.00;94564.41;4802362;29;20051;-60
2023/05/03 06:33:44;;;;;;;81.80;13.15;;;;;;;7.35;100.00;94570.69;4802578;29;20049;-60
2023/05/03 06:36:11;;;;;;;38.05;13.18;;;;;;;7.27;100.00;94572.59;4803608;29;20046;-61
2023/05/03 06:38:39;;;;;;;41.67;11.93;;;;;;;7.72;100.00;94569.78;4802805;29;20185;-64
2023/05/03 06:41:05;;;;;;;158.82;15.98;;;;;;;6.48;100.00;94565.59;4803591;29;20061;-60
2023/05/03 06:43:32;;;;;;;34.08;12.30;;;;;;;7.28;100.00;94571.41;4786685;29;20058;-62
2023/05/03 06:45:59;;;;;;;25.00;11.52;;;;;;;7.85;100.00;94568.31;4803244;29;20071;-60
2023/05/03 06:48:26;;;;;;;29.73;11.50;;;;;;;7.70;100.00;94561.94;4802172;29;20077;-60
2023/05/03 06:50:54;;;;;;;40.30;12.43;;;;;;;8.44;100.00;94556.47;4803383;29;20497;-60
2023/05/03 06:53:20;;;;;;;22.13;11.10;;;;;;;9.30;100.00;94549.19;4802403;29;20103;-61
2023/05/03 06:55:47;;;;;;;20.73;11.02;;;;;;;9.86;100.00;94543.22;4802979;29;20398;-60
2023/05/03 06:58:15;;;;;;;39.60;11.88;;;;;;;8.04;100.00;94553.53;4786446;29;20046;-64
2023/05/03 07:00:42;;;;;;;21.52;11.60;;;;;;;8.50;100.00;94552.19;4802868;29;20050;-60
2023/05/03 07:03:08;;;;;;;23.83;10.93;;;;;;;9.51;100.00;94542.88;4803121;29;20054;-60
2023/05/03 07:05:35;;;;;;;28.95;11.63;;;;;;;8.98;100.00;94547.19;4802359;29;20051;-60
2023/05/03 07:08:02;;;;;;;19.02;11.40;;;;;;;10.33;100.00;94538.41;4786842;29;20412;-64
2023/05/03 07:10:30;;;;;;;29.25;13.27;;;;;;;10.04;100.00;94549.47;4802222;29;20417;-60
2023/05/03 07:12:57;;;;;;;24.05;12.02;;;;;;;9.10;100.00;94557.00;4803127;29;20053;-60
2023/05/03 07:15:24;;;;;;;33.77;13.20;;;;;;;8.89;100.00;94562.44;4786157;29;20070;-60
2023/05/03 07:17:50;;;;;;;22.20;12.60;;;;;;;9.09;100.00;94554.63;4786441;29;20051;-60
2023/05/03 07:20:17;;;;;;;23.55;11.65;;;;;;;10.54;100.00;94540.25;4802768;29;20046;-60
2023/05/03 07:22:44;;;;;;;21.10;12.02;;;;;;;9.85;100.00;94549.88;4802313;29;20126;-58
2023/05/03 07:25:13;;;;;;;32.00;14.40;;;;;;;7.67;100.00;94551.81;4786703;29;20107;-62
2023/05/03 07:27:39;;;;;;;26.83;13.23;;;;;;;8.68;100.00;94552.25;4802171;29;20134;-58
2023/05/03 07:30:07;;;;;;;24.77;13.10;;;;;;;9.54;100.00;94536.63;4802760;29;20070;-60
2023/05/03 07:32:33;;;;;;;21.95;11.82;;;;;;;9.93;100.00;94540.47;4802050;29;20169;-60
2023/05/03 07:35:00;;;;;;;20.38;12.13;;;;;;;10.35;100.00;94533.28;4802681;29;20047;-59
2023/05/03 07:37:27;;;;;;;21.25;12.13;;;;;;;10.25;100.00;94534.88;4802110;29;20050;-60
2023/05/03 07:39:54;;;;;;;20.07;11.77;;;;;;;11.70;100.00;94530.00;4802654;29;20077;-61
2023/05/03 07:42:21;;;;;;;23.80;13.85;;;;;;;10.00;100.00;94522.03;4801981;29;20601;-61
2023/05/03 07:44:47;;;;;;;22.55;14.40;;;;;;;10.38;100.00;94519.56;4801815;29;20055;-59
2023/05/03 07:47:14;;;;;;;24.98;16.20;;;;;;;9.48;100.00;94519.03;4802335;29;20114;-58
2023/05/03 07:49:41;;;;;;;20.50;12.75;;;;;;;10.99;100.00;94519.19;4801706;29;20054;-58
2023/05/03 07:52:08;;;;;;;22.73;14.77;;;;;;;10.67;100.00;94518.63;4802308;29;20055;-59
2023/05/03 07:54:35;;;;;;;19.52;12.73;;;;;;;13.81;100.00;94498.78;4801648;29;20066;-59
2023/05/03 07:57:02;;;;;;;18.15;12.27;;;;;;;15.41;95.25;94500.56;4786341;29;20055;-59
2023/05/03 07:59:29;;;;;;;19.60;12.90;;;;;;;14.30;100.00;94501.78;4802067;29;20065;-59
2023/05/03 08:01:56;;;;;;;17.50;12.00;;;;;;;17.49;76.13;94494.72;4801878;29;20085;-62
2023/05/03 08:04:26;;;;;;;18.00;11.87;;;;;;;16.84;82.00;94493.16;4801392;29;20635;-59
2023/05/03 08:06:53;;;;;;;17.77;12.80;;;;;;;17.22;79.33;94490.38;4801928;29;20055;-62
2023/05/03 08:09:20;;;;;;;18.02;13.43;;;;;;;14.55;87.70;94489.47;4801628;29;20042;-58
2023/05/03 08:11:47;;;;;;;18.75;14.13;;;;;;;14.47;93.59;94488.81;4784847;29;20683;-59
2023/05/03 08:14:13;;;;;;;19.27;13.88;;;;;;;15.76;91.85;94487.84;4801905;29;20051;-62
2023/05/03 08:16:40;;;;;;;14.47;10.80;;;;;;;18.29;73.25;94482.47;4801733;29;20051;-60
2023/05/03 08:19:07;;;;;;;13.23;9.90;;;;;;;20.80;64.60;94483.47;4802030;29;20119;-59
2023/05/03 08:21:34;;;;;;;14.85;11.10;;;;;;;22.67;54.44;94475.09;4801205;29;20049;-60
2023/05/03 08:24:01;;;;;;;12.30;9.73;;;;;;;24.14;47.15;94480.16;4802094;29;20083;-60
2023/05/03 08:26:28;;;;;;;12.13;9.80;;;;;;;24.83;44.04;94490.88;4800861;29;20073;-61
2023/05/03 08:28:55;;;;;;;13.67;11.10;;;;;;;24.37;41.99;94488.81;4801912;29;20433;-62
2023/05/03 08:31:22;;;;;;;11.85;9.85;;;;;;;24.23;45.68;94484.88;4801215;29;20043;-61
2023/05/03 08:33:49;;;;;;;12.52;9.30;;;;;;;26.33;40.24;94479.69;4801692;29;20062;-60
2023/05/03 08:36:16;;;;;;;13.38;10.68;;;;;;;24.83;41.63;94480.44;4801570;29;20061;-60
2023/05/03 08:38:42;;;;;;;11.32;9.32;;;;;;;20.22;49.14;94479.66;4801163;29;20087;-60
2023/05/03 08:41:18;;;;;;;9.30;8.20;;;;;;;21.64;47.40;94479.13;4801384;29;20051;-61
2023/05/03 08:43:46;;;;;;;10.38;8.73;;;;;;;20.38;46.26;94484.13;4785137;29;20395;-61
2023/05/03 08:46:13;;;;;;;8.70;7.75;;;;;;;22.97;43.22;94468.75;4801625;29;20051;-60
2023/05/03 08:48:40;;;;;;;9.18;8.02;;;;;;;20.33;52.31;94470.81;4801208;29;20119;-61
2023/05/03 08:51:08;;;;;;;10.88;9.35;;;;;;;24.31;42.41;94469.91;4801446;29;20051;-61
2023/05/03 08:53:35;;;;;;;9.60;8.13;;;;;;;23.10;43.89;94470.00;4800859;29;20050;-63
2023/05/03 08:56:06;;;;;;;10.75;8.10;;;;;;;23.65;41.79;94464.97;4802019;29;20058;-60
2023/05/03 08:58:35;;;;;;;11.32;8.93;;;;;;;21.63;43.92;94474.81;4805134;29;20114;-60
2023/05/03 09:01:06;;;;;;;10.35;8.20;;;;;;;24.71;38.86;94473.19;4788831;29;20051;-64
2023/05/03 09:03:34;;;;;;;9.43;7.03;;;;;;;21.85;45.29;94466.13;4804593;29;20118;-64
2023/05/03 09:06:02;;;;;;;9.40;7.90;;;;;;;23.22;40.57;94458.97;4804851;29;20053;-63
2023/05/03 09:08:29;;;;;;;8.52;7.45;;;;;;;22.69;42.48;94467.00;4804493;29;20043;-62
2023/05/03 09:10:56;;;;;;;9.60;6.85;;;;;;;20.92;42.78;94476.16;4805216;29;20137;-61
2023/05/03 09:13:30;;;;;;;8.90;7.97;;;;;;;18.42;48.53;94477.63;4804490;29;20496;-59
2023/05/03 09:15:57;;;;;;;7.05;6.20;;;;;;;25.19;37.84;94466.19;4804952;29;20295;-61
2023/05/03 09:18:25;;;;;;;14.17;6.57;;;;;;;23.07;38.24;94473.78;4788388;29;20083;-60
2023/05/03 09:20:52;;;;;;;9.30;6.60;;;;;;;23.26;37.28;94479.16;4804830;29;20069;-61
2023/05/03 09:23:25;;;;;;;8.32;5.63;;;;;;;24.31;36.45;94472.72;4804678;29;20485;-63
2023/05/03 09:25:52;;;;;;;7.65;6.63;;;;;;;22.50;38.41;94474.03;4803650;29;20541;-60
2023/05/03 09:28:19;;;;;;;7.88;7.07;;;;;;;20.67;41.77;94480.09;4804857;29;20104;-62
2023/05/03 09:30:47;;;;;;;8.10;6.80;;;;;;;21.99;39.68;94473.00;4803859;29;20702;-62
2023/05/03 09:33:19;;;;;;;8.00;6.55;;;;;;;22.59;38.87;94470.38;4802945;29;20069;-61
2023/05/03 09:36:01;;;;;;;7.50;6.38;;;;;;;25.57;34.51;94473.38;4803686;29;21458;-60
2023/05/03 09:38:33;;;;;;;7.35;6.07;;;;;;;23.93;38.41;94468.94;4803782;29;20410;-60
2023/05/03 09:41:00;;;;;;;7.55;6.28;;;;;;;23.90;37.88;94474.75;4804639;29;20043;-60
2023/05/03 09:43:27;;;;;;;7.07;5.90;;;;;;;22.87;37.96;94468.06;4803897;29;20066;-63
2023/05/03 09:46:11;;;;;;;6.40;5.50;;;;;;;21.91;38.25;94467.03;4804324;29;20135;-61
2023/05/03 09:48:39;;;;;;;7.03;5.90;;;;;;;22.34;38.76;94475.25;4790488;29;20062;-60
2023/05/03 09:51:06;;;;;;;7.25;5.70;;;;;;;22.81;37.73;94461.59;4803961;29;20055;-61
2023/05/03 09:53:35;;;;;;;5.88;4.78;;;;;;;26.24;32.38;94455.34;4803488;29;20047;-60
2023/05/03 09:56:03;;;;;;;8.20;4.77;;;;;;;26.66;31.72;94453.69;4804210;29;20051;-61
2023/05/03 09:58:31;;;;;;;8.57;6.20;;;;;;;21.84;37.87;94455.44;4803564;29;20043;-60
2023/05/03 10:00:58;;;;;;;8.10;6.32;;;;;;;20.03;40.35;94464.94;4803965;29;20155;-61
2023/05/03 10:03:36;;;;;;;7.10;6.40;;;;;;;20.05;40.08;94459.69;4803364;29;20051;-60
2023/05/03 10:06:05;;;;;;;7.82;5.90;;;;;;;22.24;36.65;94460.56;4803802;29;20074;-61
2023/05/03 10:08:36;;;;;;;8.67;5.10;;;;;;;24.84;33.27;94456.69;4802706;29;20074;-62
2023/05/03 10:11:06;;;;;;;5.85;4.70;;;;;;;26.19;31.97;94456.09;4803751;29;20050;-60
2023/05/03 10:13:34;;;;;;;6.68;4.90;;;;;;;27.55;30.55;94443.78;4802894;29;20051;-60
2023/05/03 10:16:05;;;;;;;8.23;5.43;;;;;;;24.63;33.32;94456.00;4803656;29;20102;-60
2023/05/03 10:18:36;;;;;;;7.43;6.70;;;;;;;17.71;45.98;94462.25;4803480;29;20047;-60
2023/05/03 10:21:11;;;;;;;6.40;5.40;;;;;;;23.45;37.47;94446.09;4804043;29;20047;-61
2023/05/03 10:24:14;;;;;;;7.72;4.65;;;;;;;25.37;32.92;94457.41;4803140;29;20148;-62
2023/05/03 10:26:44;;;;;;;7.82;5.88;;;;;;;19.70;41.54;94462.72;4787292;29;20047;-59
2023/05/03 10:29:36;;;;;;;7.00;5.38;;;;;;;22.13;36.78;94461.13;4787481;29;20102;-60
2023/05/03 10:32:27;;;;;;;7.00;5.40;;;;;;;18.41;39.17;94453.88;4802793;29;20058;-63
2023/05/03 10:35:02;;;;;;;7.13;5.77;;;;;;;18.20;43.30;94455.41;4799003;29;20577;-62
2023/05/03 10:37:31;;;;;;;7.68;6.32;;;;;;;18.14;43.15;94457.22;4803057;29;20049;-60
2023/05/03 10:40:05;;;;;;;7.18;6.00;;;;;;;21.57;37.52;94465.53;4803418;29;20058;-59
2023/05/03 10:42:32;;;;;;;6.35;5.53;;;;;;;21.42;38.25;94453.47;4802631;29;20521;-60
2023/05/03 10:45:02;;;;;;;8.70;6.72;;;;;;;18.97;42.23;94457.72;4803321;29;20051;-59
2023/05/03 10:47:29;;;;;;;7.90;7.10;;;;;;;19.81;40.36;94453.94;4802627;29;20059;-60
2023/05/03 10:50:14;;;;;;;7.38;6.07;;;;;;;20.69;39.17;94452.53;4803525;29;20051;-59
2023/05/03 10:52:40;;;;;;;8.50;7.32;;;;;;;19.32;42.12;94449.19;4802943;29;20054;-59
2023/05/03 10:55:23;;;;;;;8.23;6.43;;;;;;;18.76;42.98;94473.97;4803160;29;20121;-59
2023/05/03 10:57:53;;;;;;;11.35;7.25;;;;;;;16.83;48.26;94466.69;4802320;29;20085;-59
2023/05/03 11:00:32;;;;;;;8.63;7.63;;;;;;;15.62;50.63;94466.81;4802408;29;20053;-56
2023/05/03 11:03:09;;;;;;;8.82;6.82;;;;;;;16.12;51.54;94465.50;4802950;29;20059;-60
2023/05/03 11:05:37;;;;;;;10.18;7.10;;;;;;;17.21;48.61;94466.66;4802425;29;20051;-58
2023/05/03 11:08:12;;;;;;;8.63;7.20;;;;;;;16.50;49.58;94459.28;4803100;29;20076;-60
2023/05/03 11:10:39;;;;;;;10.27;6.50;;;;;;;15.82;48.80;94444.59;4786287;29;20059;-59
2023/05/03 11:13:06;;;;;;;8.73;5.47;;;;;;;16.53;48.02;94457.63;4802852;29;20055;-58
2023/05/03 11:15:35;;;;;;;8.48;6.00;;;;;;;15.48;50.65;94462.44;4786518;29;20058;-61
2023/05/03 11:18:02;;;;;;;7.50;6.05;;;;;;;16.05;50.78;94462.16;4802926;29;20517;-59
2023/05/03 11:20:29;;;;;;;7.95;6.10;;;;;;;15.77;50.40;94454.22;4784776;29;20057;-59
2023/05/03 11:22:56;;;;;;;8.07;5.72;;;;;;;15.73;50.64;94459.03;4802871;29;20055;-59
2023/05/03 11:25:22;;;;;;;9.07;5.40;;;;;;;16.81;48.08;94450.47;4802127;29;20085;-60
2023/05/03 11:27:49;;;;;;;8.15;5.90;;;;;;;16.50;48.54;94447.41;4786489;29;20059;-60
2023/05/03 11:30:16;;;;;;;7.20;6.20;;;;;;;15.40;51.14;94438.94;4802776;29;20043;-58